sensor_id;sensor_type;location;lat;lon;timestamp;P1;durP1;ratioP1;P2;durP2;ratioP2
20880;SDS011;10600;53.096;8.802;2023-07-31T00:00:39;12.35;;;4.57;;
20880;SDS011;10600;53.096;8.802;2023-07-31T00:01:40;6.90;;;3.20;;
20880;SDS011;10600;53.096;8.802;2023-07-31T00:02:41;11.15;;;4.00;;
20880;SDS011;10600;53.096;8.802;2023-07-31T00:03:42;13.68;;;4.25;;
20880;SDS011;10600;53.096;8.802;2023-07-31T00:04:47;9.07;;;3.65;;
20880;SDS011;10600;53.096;8.802;2023-07-31T00:05:49;8.32;;;3.88;;
20880;SDS011;10600;53.096;8.802;2023-07-31T00:06:50;12.85;;;3.90;;
20880;SDS011;10600;53.096;8.802;2023-07-31T00:07:51;10.55;;;3.50;;
20880;SDS011;10600;53.096;8.802;2023-07-31T00:08:52;10.75;;;3.90;;
20880;SDS011;10600;53.096;8.802;2023-07-31T00:09:57;13.30;;;3.70;;
20880;SDS011;10600;53.096;8.802;2023-07-31T00:10:58;8.07;;;3.70;;
20880;SDS011;10600;53.096;8.802;2023-07-31T00:12:02;11.45;;;3.97;;
20880;SDS011;10600;53.096;8.802;2023-07-31T00:13:06;7.00;;;3.58;;
20880;SDS011;10600;53.096;8.802;2023-07-31T00:14:10;11.65;;;4.15;;
20880;SDS011;10600;53.096;8.802;2023-07-31T00:15:12;9.00;;;3.67;;
20880;SDS011;10600;53.096;8.802;2023-07-31T00:16:14;11.20;;;3.58;;
20880;SDS011;10600;53.096;8.802;2023-07-31T00:17:16;9.93;;;3.63;;
20880;SDS011;10600;53.096;8.802;2023-07-31T00:18:17;9.57;;;3.95;;
20880;SDS011;10600;53.096;8.802;2023-07-31T00:19:19;9.48;;;3.83;;
20880;SDS011;10600;53.096;8.802;2023-07-31T00:20:20;8.57;;;3.60;;
20880;SDS011;10600;53.096;8.802;2023-07-31T00:21:22;6.80;;;4.07;;
20880;SDS011;10600;53.096;8.802;2023-07-31T00:22:23;8.27;;;3.47;;
20880;SDS011;10600;53.096;8.802;2023-07-31T00:23:24;7.05;;;3.72;;
20880;SDS011;10600;53.096;8.802;2023-07-31T00:24:25;10.18;;;3.38;;
20880;SDS011;10600;53.096;8.802;2023-07-31T00:25:38;10.02;;;3.90;;
20880;SDS011;10600;53.096;8.802;2023-07-31T00:26:40;8.73;;;3.75;;
20880;SDS011;10600;53.096;8.802;2023-07-31T00:27:41;6.53;;;3.35;;
20880;SDS011;10600;53.096;8.802;2023-07-31T00:28:45;8.45;;;4.13;;
20880;SDS011;10600;53.096;8.802;2023-07-31T00:29:49;7.90;;;3.58;;
20880;SDS011;10600;53.096;8.802;2023-07-31T00:30:50;8.38;;;3.67;;
20880;SDS011;10600;53.096;8.802;2023-07-31T00:31:51;8.75;;;3.38;;
20880;SDS011;10600;53.096;8.802;2023-07-31T00:32:54;10.40;;;3.72;;
20880;SDS011;10600;53.096;8.802;2023-07-31T00:33:55;7.75;;;3.65;;
20880;SDS011;10600;53.096;8.802;2023-07-31T00:34:56;8.68;;;3.13;;
20880;SDS011;10600;53.096;8.802;2023-07-31T00:35:57;8.77;;;3.78;;
20880;SDS011;10600;53.096;8.802;2023-07-31T00:36:58;8.23;;;3.60;;
20880;SDS011;10600;53.096;8.802;2023-07-31T00:38:02;17.52;;;9.40;;
20880;SDS011;10600;53.096;8.802;2023-07-31T00:39:03;7.60;;;3.83;;
20880;SDS011;10600;53.096;8.802;2023-07-31T00:40:13;8.68;;;3.80;;
20880;SDS011;10600;53.096;8.802;2023-07-31T00:41:15;7.50;;;4.95;;
20880;SDS011;10600;53.096;8.802;2023-07-31T00:42:16;8.63;;;4.05;;
20880;SDS011;10600;53.096;8.802;2023-07-31T00:43:17;5.90;;;3.15;;
20880;SDS011;10600;53.096;8.802;2023-07-31T00:44:18;6.80;;;3.45;;
20880;SDS011;10600;53.096;8.802;2023-07-31T00:45:22;10.73;;;3.95;;
20880;SDS011;10600;53.096;8.802;2023-07-31T00:46:24;6.45;;;3.63;;
20880;SDS011;10600;53.096;8.802;2023-07-31T00:47:26;8.85;;;3.33;;
20880;SDS011;10600;53.096;8.802;2023-07-31T00:48:27;9.00;;;4.05;;
20880;SDS011;10600;53.096;8.802;2023-07-31T00:49:28;8.27;;;3.55;;
20880;SDS011;10600;53.096;8.802;2023-07-31T00:50:30;6.25;;;3.30;;
20880;SDS011;10600;53.096;8.802;2023-07-31T00:51:34;9.10;;;3.55;;
20880;SDS011;10600;53.096;8.802;2023-07-31T00:52:35;7.85;;;3.95;;
20880;SDS011;10600;53.096;8.802;2023-07-31T00:53:37;7.00;;;3.08;;
20880;SDS011;10600;53.096;8.802;2023-07-31T00:54:38;5.47;;;3.53;;
20880;SDS011;10600;53.096;8.802;2023-07-31T00:55:39;6.15;;;3.30;;
20880;SDS011;10600;53.096;8.802;2023-07-31T00:56:41;9.35;;;3.78;;
20880;SDS011;10600;53.096;8.802;2023-07-31T00:57:42;8.50;;;3.47;;
20880;SDS011;10600;53.096;8.802;2023-07-31T00:58:44;6.05;;;2.88;;
20880;SDS011;10600;53.096;8.802;2023-07-31T00:59:45;7.85;;;3.25;;
20880;SDS011;10600;53.096;8.802;2023-07-31T01:00:46;7.28;;;3.22;;
20880;SDS011;10600;53.096;8.802;2023-07-31T01:01:50;5.78;;;3.55;;
20880;SDS011;10600;53.096;8.802;2023-07-31T01:02:52;7.18;;;3.58;;
20880;SDS011;10600;53.096;8.802;2023-07-31T01:03:53;9.48;;;3.08;;
20880;SDS011;10600;53.096;8.802;2023-07-31T01:04:54;8.95;;;3.70;;
20880;SDS011;10600;53.096;8.802;2023-07-31T01:07:24;9.30;;;3.53;;
20880;SDS011;10600;53.096;8.802;2023-07-31T01:08:40;7.68;;;3.88;;
20880;SDS011;10600;53.096;8.802;2023-07-31T01:09:45;9.02;;;3.80;;
20880;SDS011;10600;53.096;8.802;2023-07-31T01:10:54;6.35;;;3.85;;
20880;SDS011;10600;53.096;8.802;2023-07-31T01:11:56;7.10;;;3.67;;
20880;SDS011;10600;53.096;8.802;2023-07-31T01:12:59;5.63;;;3.05;;
20880;SDS011;10600;53.096;8.802;2023-07-31T01:14:01;7.85;;;3.50;;
20880;SDS011;10600;53.096;8.802;2023-07-31T01:16:04;5.78;;;3.53;;
20880;SDS011;10600;53.096;8.802;2023-07-31T01:17:05;7.20;;;3.95;;
20880;SDS011;10600;53.096;8.802;2023-07-31T01:18:06;9.07;;;3.65;;
20880;SDS011;10600;53.096;8.802;2023-07-31T01:19:07;6.28;;;3.35;;
20880;SDS011;10600;53.096;8.802;2023-07-31T01:26:16;8.30;;;3.35;;
20880;SDS011;10600;53.096;8.802;2023-07-31T01:27:27;12.88;;;4.57;;
20880;SDS011;10600;53.096;8.802;2023-07-31T01:30:54;5.93;;;3.50;;
20880;SDS011;10600;53.096;8.802;2023-07-31T01:31:56;5.75;;;3.15;;
20880;SDS011;10600;53.096;8.802;2023-07-31T01:32:57;5.97;;;3.60;;
20880;SDS011;10600;53.096;8.802;2023-07-31T01:34:00;8.50;;;3.60;;
20880;SDS011;10600;53.096;8.802;2023-07-31T01:35:01;7.47;;;3.55;;
20880;SDS011;10600;53.096;8.802;2023-07-31T01:36:02;4.72;;;3.10;;
20880;SDS011;10600;53.096;8.802;2023-07-31T01:37:04;5.70;;;3.15;;
20880;SDS011;10600;53.096;8.802;2023-07-31T01:38:05;7.93;;;3.83;;
20880;SDS011;10600;53.096;8.802;2023-07-31T01:39:06;7.22;;;3.53;;
20880;SDS011;10600;53.096;8.802;2023-07-31T01:40:07;6.05;;;3.28;;
20880;SDS011;10600;53.096;8.802;2023-07-31T01:41:08;7.03;;;3.40;;
20880;SDS011;10600;53.096;8.802;2023-07-31T01:42:10;7.80;;;3.45;;
20880;SDS011;10600;53.096;8.802;2023-07-31T01:43:18;7.22;;;3.53;;
20880;SDS011;10600;53.096;8.802;2023-07-31T01:44:22;7.20;;;3.05;;
20880;SDS011;10600;53.096;8.802;2023-07-31T01:45:27;6.28;;;4.03;;
20880;SDS011;10600;53.096;8.802;2023-07-31T01:46:28;5.63;;;3.42;;
20880;SDS011;10600;53.096;8.802;2023-07-31T01:47:29;6.82;;;3.25;;
20880;SDS011;10600;53.096;8.802;2023-07-31T01:48:30;6.03;;;3.15;;
20880;SDS011;10600;53.096;8.802;2023-07-31T01:49:35;5.72;;;3.10;;
20880;SDS011;10600;53.096;8.802;2023-07-31T01:50:36;7.70;;;3.50;;
20880;SDS011;10600;53.096;8.802;2023-07-31T01:51:37;8.40;;;3.08;;
20880;SDS011;10600;53.096;8.802;2023-07-31T01:52:38;4.00;;;3.00;;
20880;SDS011;10600;53.096;8.802;2023-07-31T01:53:39;5.15;;;2.92;;
20880;SDS011;10600;53.096;8.802;2023-07-31T01:54:40;6.15;;;3.38;;
20880;SDS011;10600;53.096;8.802;2023-07-31T01:55:41;4.63;;;3.05;;
20880;SDS011;10600;53.096;8.802;2023-07-31T01:56:42;8.55;;;3.95;;
20880;SDS011;10600;53.096;8.802;2023-07-31T01:57:44;7.70;;;3.97;;
20880;SDS011;10600;53.096;8.802;2023-07-31T01:58:45;7.57;;;3.47;;
20880;SDS011;10600;53.096;8.802;2023-07-31T01:59:46;5.05;;;3.10;;
20880;SDS011;10600;53.096;8.802;2023-07-31T02:00:47;6.97;;;3.45;;
20880;SDS011;10600;53.096;8.802;2023-07-31T02:01:48;7.70;;;3.53;;
20880;SDS011;10600;53.096;8.802;2023-07-31T02:02:49;6.47;;;3.40;;
20880;SDS011;10600;53.096;8.802;2023-07-31T02:03:50;6.70;;;3.22;;
20880;SDS011;10600;53.096;8.802;2023-07-31T02:04:51;5.00;;;3.33;;
20880;SDS011;10600;53.096;8.802;2023-07-31T02:05:53;8.23;;;3.70;;
20880;SDS011;10600;53.096;8.802;2023-07-31T02:06:54;6.55;;;3.60;;
20880;SDS011;10600;53.096;8.802;2023-07-31T02:07:55;6.43;;;3.92;;
20880;SDS011;10600;53.096;8.802;2023-07-31T02:08:56;6.43;;;3.63;;
20880;SDS011;10600;53.096;8.802;2023-07-31T02:09:57;7.75;;;3.88;;
20880;SDS011;10600;53.096;8.802;2023-07-31T02:10:58;6.63;;;3.78;;
20880;SDS011;10600;53.096;8.802;2023-07-31T02:11:59;5.32;;;3.75;;
20880;SDS011;10600;53.096;8.802;2023-07-31T02:13:00;5.75;;;3.35;;
20880;SDS011;10600;53.096;8.802;2023-07-31T02:14:03;9.40;;;3.80;;
20880;SDS011;10600;53.096;8.802;2023-07-31T02:15:04;9.02;;;4.18;;
20880;SDS011;10600;53.096;8.802;2023-07-31T02:16:05;10.43;;;4.53;;
20880;SDS011;10600;53.096;8.802;2023-07-31T02:17:07;5.97;;;3.75;;
20880;SDS011;10600;53.096;8.802;2023-07-31T02:18:08;7.90;;;4.40;;
20880;SDS011;10600;53.096;8.802;2023-07-31T02:19:09;7.45;;;4.50;;
20880;SDS011;10600;53.096;8.802;2023-07-31T02:20:10;11.35;;;4.15;;
20880;SDS011;10600;53.096;8.802;2023-07-31T02:21:11;7.25;;;4.10;;
20880;SDS011;10600;53.096;8.802;2023-07-31T02:22:12;7.00;;;4.82;;
20880;SDS011;10600;53.096;8.802;2023-07-31T02:23:13;8.18;;;4.70;;
20880;SDS011;10600;53.096;8.802;2023-07-31T02:24:14;7.72;;;4.20;;
20880;SDS011;10600;53.096;8.802;2023-07-31T02:25:15;8.63;;;4.93;;
20880;SDS011;10600;53.096;8.802;2023-07-31T02:26:16;7.47;;;4.40;;
20880;SDS011;10600;53.096;8.802;2023-07-31T02:27:17;6.18;;;4.93;;
20880;SDS011;10600;53.096;8.802;2023-07-31T02:28:18;8.20;;;4.90;;
20880;SDS011;10600;53.096;8.802;2023-07-31T02:29:19;8.15;;;5.00;;
20880;SDS011;10600;53.096;8.802;2023-07-31T02:30:20;6.45;;;4.30;;
20880;SDS011;10600;53.096;8.802;2023-07-31T02:31:21;8.43;;;4.63;;
20880;SDS011;10600;53.096;8.802;2023-07-31T02:32:22;7.90;;;4.63;;
20880;SDS011;10600;53.096;8.802;2023-07-31T02:33:23;12.70;;;5.70;;
20880;SDS011;10600;53.096;8.802;2023-07-31T02:34:24;7.82;;;4.70;;
20880;SDS011;10600;53.096;8.802;2023-07-31T02:35:25;10.60;;;5.13;;
20880;SDS011;10600;53.096;8.802;2023-07-31T02:36:26;9.02;;;5.30;;
20880;SDS011;10600;53.096;8.802;2023-07-31T02:37:27;8.20;;;5.10;;
20880;SDS011;10600;53.096;8.802;2023-07-31T02:38:29;10.48;;;5.30;;
20880;SDS011;10600;53.096;8.802;2023-07-31T02:39:30;10.00;;;5.70;;
20880;SDS011;10600;53.096;8.802;2023-07-31T02:40:31;8.60;;;5.60;;
20880;SDS011;10600;53.096;8.802;2023-07-31T02:41:32;13.65;;;6.00;;
20880;SDS011;10600;53.096;8.802;2023-07-31T02:42:33;8.45;;;5.22;;
20880;SDS011;10600;53.096;8.802;2023-07-31T02:43:34;7.93;;;5.47;;
20880;SDS011;10600;53.096;8.802;2023-07-31T02:44:35;8.50;;;5.82;;
20880;SDS011;10600;53.096;8.802;2023-07-31T02:45:36;9.85;;;6.35;;
20880;SDS011;10600;53.096;8.802;2023-07-31T02:46:38;8.40;;;5.57;;
20880;SDS011;10600;53.096;8.802;2023-07-31T02:47:38;10.38;;;6.15;;
20880;SDS011;10600;53.096;8.802;2023-07-31T02:48:39;9.13;;;6.18;;
20880;SDS011;10600;53.096;8.802;2023-07-31T02:49:41;11.02;;;6.03;;
20880;SDS011;10600;53.096;8.802;2023-07-31T02:50:51;8.77;;;6.35;;
20880;SDS011;10600;53.096;8.802;2023-07-31T02:51:52;12.10;;;6.57;;
20880;SDS011;10600;53.096;8.802;2023-07-31T02:53:11;8.20;;;5.63;;
20880;SDS011;10600;53.096;8.802;2023-07-31T02:54:21;10.73;;;6.45;;
20880;SDS011;10600;53.096;8.802;2023-07-31T02:55:34;10.48;;;5.75;;
20880;SDS011;10600;53.096;8.802;2023-07-31T02:56:35;9.38;;;6.40;;
20880;SDS011;10600;53.096;8.802;2023-07-31T02:58:23;10.13;;;5.85;;
20880;SDS011;10600;53.096;8.802;2023-07-31T02:59:04;10.48;;;6.07;;
20880;SDS011;10600;53.096;8.802;2023-07-31T03:00:06;8.10;;;5.85;;
20880;SDS011;10600;53.096;8.802;2023-07-31T03:01:16;11.38;;;6.30;;
20880;SDS011;10600;53.096;8.802;2023-07-31T03:02:18;11.13;;;6.40;;
20880;SDS011;10600;53.096;8.802;2023-07-31T03:03:20;13.82;;;6.40;;
20880;SDS011;10600;53.096;8.802;2023-07-31T03:04:24;11.75;;;6.15;;
20880;SDS011;10600;53.096;8.802;2023-07-31T03:05:26;12.20;;;6.75;;
20880;SDS011;10600;53.096;8.802;2023-07-31T03:06:30;9.13;;;5.93;;
20880;SDS011;10600;53.096;8.802;2023-07-31T03:07:52;8.98;;;6.60;;
20880;SDS011;10600;53.096;8.802;2023-07-31T03:08:53;10.48;;;6.35;;
20880;SDS011;10600;53.096;8.802;2023-07-31T03:09:58;10.32;;;6.22;;
20880;SDS011;10600;53.096;8.802;2023-07-31T03:10:59;11.15;;;6.15;;
20880;SDS011;10600;53.096;8.802;2023-07-31T03:12:00;9.32;;;6.22;;
20880;SDS011;10600;53.096;8.802;2023-07-31T03:13:08;14.85;;;6.65;;
20880;SDS011;10600;53.096;8.802;2023-07-31T03:14:09;11.32;;;6.00;;
20880;SDS011;10600;53.096;8.802;2023-07-31T03:15:10;10.38;;;6.45;;
20880;SDS011;10600;53.096;8.802;2023-07-31T03:16:20;10.40;;;6.80;;
20880;SDS011;10600;53.096;8.802;2023-07-31T03:17:23;11.88;;;6.50;;
20880;SDS011;10600;53.096;8.802;2023-07-31T03:18:27;10.52;;;5.90;;
20880;SDS011;10600;53.096;8.802;2023-07-31T03:19:32;10.95;;;6.72;;
20880;SDS011;10600;53.096;8.802;2023-07-31T03:20:36;8.98;;;5.78;;
20880;SDS011;10600;53.096;8.802;2023-07-31T03:21:40;11.88;;;6.53;;
20880;SDS011;10600;53.096;8.802;2023-07-31T03:22:42;9.90;;;6.00;;
20880;SDS011;10600;53.096;8.802;2023-07-31T03:23:46;10.07;;;6.65;;
20880;SDS011;10600;53.096;8.802;2023-07-31T03:24:48;11.95;;;5.82;;
20880;SDS011;10600;53.096;8.802;2023-07-31T03:25:58;10.82;;;7.05;;
20880;SDS011;10600;53.096;8.802;2023-07-31T03:26:59;12.23;;;6.90;;
20880;SDS011;10600;53.096;8.802;2023-07-31T03:28:01;10.00;;;6.70;;
20880;SDS011;10600;53.096;8.802;2023-07-31T03:29:02;11.13;;;6.35;;
20880;SDS011;10600;53.096;8.802;2023-07-31T03:30:03;9.45;;;6.40;;
20880;SDS011;10600;53.096;8.802;2023-07-31T03:31:04;14.13;;;6.75;;
20880;SDS011;10600;53.096;8.802;2023-07-31T03:32:08;10.57;;;6.43;;
20880;SDS011;10600;53.096;8.802;2023-07-31T03:33:09;11.55;;;6.57;;
20880;SDS011;10600;53.096;8.802;2023-07-31T03:34:10;10.30;;;6.40;;
20880;SDS011;10600;53.096;8.802;2023-07-31T03:35:11;10.48;;;6.60;;
20880;SDS011;10600;53.096;8.802;2023-07-31T03:36:12;8.63;;;6.43;;
20880;SDS011;10600;53.096;8.802;2023-07-31T03:37:14;10.82;;;6.53;;
20880;SDS011;10600;53.096;8.802;2023-07-31T03:38:24;12.15;;;6.30;;
20880;SDS011;10600;53.096;8.802;2023-07-31T03:39:28;9.50;;;6.18;;
20880;SDS011;10600;53.096;8.802;2023-07-31T03:40:29;10.60;;;6.32;;
20880;SDS011;10600;53.096;8.802;2023-07-31T03:41:30;13.48;;;6.43;;
20880;SDS011;10600;53.096;8.802;2023-07-31T03:42:31;9.15;;;5.97;;
20880;SDS011;10600;53.096;8.802;2023-07-31T03:43:32;7.70;;;6.22;;
20880;SDS011;10600;53.096;8.802;2023-07-31T03:44:41;11.60;;;7.28;;
20880;SDS011;10600;53.096;8.802;2023-07-31T03:45:42;9.38;;;6.10;;
20880;SDS011;10600;53.096;8.802;2023-07-31T03:46:43;8.82;;;5.97;;
20880;SDS011;10600;53.096;8.802;2023-07-31T03:47:44;8.93;;;6.50;;
20880;SDS011;10600;53.096;8.802;2023-07-31T03:48:45;11.48;;;6.45;;
20880;SDS011;10600;53.096;8.802;2023-07-31T03:49:47;10.07;;;6.07;;
20880;SDS011;10600;53.096;8.802;2023-07-31T03:50:48;10.55;;;7.00;;
20880;SDS011;10600;53.096;8.802;2023-07-31T03:51:49;8.27;;;5.65;;
20880;SDS011;10600;53.096;8.802;2023-07-31T03:52:50;8.60;;;6.32;;
20880;SDS011;10600;53.096;8.802;2023-07-31T03:53:51;10.07;;;6.55;;
20880;SDS011;10600;53.096;8.802;2023-07-31T03:54:53;10.38;;;6.90;;
20880;SDS011;10600;53.096;8.802;2023-07-31T03:55:54;11.32;;;6.95;;
20880;SDS011;10600;53.096;8.802;2023-07-31T03:56:55;9.88;;;7.13;;
20880;SDS011;10600;53.096;8.802;2023-07-31T03:57:56;10.50;;;6.47;;
20880;SDS011;10600;53.096;8.802;2023-07-31T03:59:00;9.05;;;6.10;;
20880;SDS011;10600;53.096;8.802;2023-07-31T04:00:04;11.65;;;6.85;;
20880;SDS011;10600;53.096;8.802;2023-07-31T04:01:08;10.23;;;6.95;;
20880;SDS011;10600;53.096;8.802;2023-07-31T04:02:09;10.93;;;7.72;;
20880;SDS011;10600;53.096;8.802;2023-07-31T04:04:51;10.57;;;6.50;;
20880;SDS011;10600;53.096;8.802;2023-07-31T04:05:54;11.88;;;7.25;;
20880;SDS011;10600;53.096;8.802;2023-07-31T04:07:10;12.65;;;7.55;;
20880;SDS011;10600;53.096;8.802;2023-07-31T04:08:37;10.52;;;6.95;;
20880;SDS011;10600;53.096;8.802;2023-07-31T04:09:47;12.50;;;7.45;;
20880;SDS011;10600;53.096;8.802;2023-07-31T04:10:49;13.18;;;8.00;;
20880;SDS011;10600;53.096;8.802;2023-07-31T04:11:50;11.88;;;6.97;;
20880;SDS011;10600;53.096;8.802;2023-07-31T04:12:51;12.00;;;7.00;;
20880;SDS011;10600;53.096;8.802;2023-07-31T04:13:52;12.05;;;7.88;;
20880;SDS011;10600;53.096;8.802;2023-07-31T04:14:53;14.35;;;7.85;;
20880;SDS011;10600;53.096;8.802;2023-07-31T04:15:54;11.85;;;7.60;;
20880;SDS011;10600;53.096;8.802;2023-07-31T04:16:55;12.38;;;8.02;;
20880;SDS011;10600;53.096;8.802;2023-07-31T04:17:56;11.55;;;8.07;;
20880;SDS011;10600;53.096;8.802;2023-07-31T04:18:58;14.65;;;8.70;;
20880;SDS011;10600;53.096;8.802;2023-07-31T04:19:59;14.13;;;8.23;;
20880;SDS011;10600;53.096;8.802;2023-07-31T04:21:00;12.57;;;8.07;;
20880;SDS011;10600;53.096;8.802;2023-07-31T04:22:02;14.10;;;8.05;;
20880;SDS011;10600;53.096;8.802;2023-07-31T04:23:03;15.70;;;7.75;;
20880;SDS011;10600;53.096;8.802;2023-07-31T04:24:04;12.43;;;8.25;;
20880;SDS011;10600;53.096;8.802;2023-07-31T04:25:05;12.13;;;7.47;;
20880;SDS011;10600;53.096;8.802;2023-07-31T04:26:06;12.02;;;7.72;;
20880;SDS011;10600;53.096;8.802;2023-07-31T04:27:07;13.75;;;7.80;;
20880;SDS011;10600;53.096;8.802;2023-07-31T04:28:08;12.32;;;8.40;;
20880;SDS011;10600;53.096;8.802;2023-07-31T04:29:09;14.48;;;8.05;;
20880;SDS011;10600;53.096;8.802;2023-07-31T04:30:10;11.73;;;7.45;;
20880;SDS011;10600;53.096;8.802;2023-07-31T04:31:11;13.13;;;8.43;;
20880;SDS011;10600;53.096;8.802;2023-07-31T04:32:13;11.38;;;7.82;;
20880;SDS011;10600;53.096;8.802;2023-07-31T04:33:16;14.98;;;8.30;;
20880;SDS011;10600;53.096;8.802;2023-07-31T04:34:18;11.27;;;7.75;;
20880;SDS011;10600;53.096;8.802;2023-07-31T04:35:19;12.25;;;8.32;;
20880;SDS011;10600;53.096;8.802;2023-07-31T04:36:20;12.68;;;8.65;;
20880;SDS011;10600;53.096;8.802;2023-07-31T04:37:21;12.25;;;7.80;;
20880;SDS011;10600;53.096;8.802;2023-07-31T04:38:22;11.43;;;7.55;;
20880;SDS011;10600;53.096;8.802;2023-07-31T04:39:23;10.98;;;7.68;;
20880;SDS011;10600;53.096;8.802;2023-07-31T04:40:24;9.93;;;7.30;;
20880;SDS011;10600;53.096;8.802;2023-07-31T04:41:25;13.05;;;7.53;;
20880;SDS011;10600;53.096;8.802;2023-07-31T04:42:26;13.35;;;7.43;;
20880;SDS011;10600;53.096;8.802;2023-07-31T04:43:27;12.20;;;7.90;;
20880;SDS011;10600;53.096;8.802;2023-07-31T04:44:28;9.70;;;7.10;;
20880;SDS011;10600;53.096;8.802;2023-07-31T04:45:30;13.45;;;7.65;;
20880;SDS011;10600;53.096;8.802;2023-07-31T04:46:31;11.60;;;7.13;;
20880;SDS011;10600;53.096;8.802;2023-07-31T04:47:32;12.52;;;7.30;;
20880;SDS011;10600;53.096;8.802;2023-07-31T04:48:33;11.82;;;7.25;;
20880;SDS011;10600;53.096;8.802;2023-07-31T04:49:34;11.05;;;7.15;;
20880;SDS011;10600;53.096;8.802;2023-07-31T04:50:35;12.63;;;7.32;;
20880;SDS011;10600;53.096;8.802;2023-07-31T04:51:36;11.30;;;7.13;;
20880;SDS011;10600;53.096;8.802;2023-07-31T04:52:37;9.73;;;7.07;;
20880;SDS011;10600;53.096;8.802;2023-07-31T04:53:38;12.57;;;7.47;;
20880;SDS011;10600;53.096;8.802;2023-07-31T04:54:39;10.15;;;6.55;;
20880;SDS011;10600;53.096;8.802;2023-07-31T04:55:40;10.10;;;6.90;;
20880;SDS011;10600;53.096;8.802;2023-07-31T04:56:41;10.27;;;6.40;;
20880;SDS011;10600;53.096;8.802;2023-07-31T04:57:42;10.38;;;6.95;;
20880;SDS011;10600;53.096;8.802;2023-07-31T04:58:43;8.43;;;6.20;;
20880;SDS011;10600;53.096;8.802;2023-07-31T04:59:44;10.60;;;6.28;;
20880;SDS011;10600;53.096;8.802;2023-07-31T05:00:46;10.38;;;6.15;;
20880;SDS011;10600;53.096;8.802;2023-07-31T05:01:47;9.63;;;5.72;;
20880;SDS011;10600;53.096;8.802;2023-07-31T05:02:48;10.55;;;5.75;;
20880;SDS011;10600;53.096;8.802;2023-07-31T05:03:49;8.35;;;6.00;;
20880;SDS011;10600;53.096;8.802;2023-07-31T05:04:50;9.13;;;6.10;;
20880;SDS011;10600;53.096;8.802;2023-07-31T05:05:51;8.60;;;5.63;;
20880;SDS011;10600;53.096;8.802;2023-07-31T05:06:52;7.63;;;5.28;;
20880;SDS011;10600;53.096;8.802;2023-07-31T05:07:53;9.45;;;5.78;;
20880;SDS011;10600;53.096;8.802;2023-07-31T05:08:54;11.52;;;5.63;;
20880;SDS011;10600;53.096;8.802;2023-07-31T05:09:55;7.95;;;5.78;;
20880;SDS011;10600;53.096;8.802;2023-07-31T05:10:56;9.20;;;6.03;;
20880;SDS011;10600;53.096;8.802;2023-07-31T05:11:57;7.72;;;5.72;;
20880;SDS011;10600;53.096;8.802;2023-07-31T05:12:58;8.80;;;6.10;;
20880;SDS011;10600;53.096;8.802;2023-07-31T05:13:59;9.15;;;5.75;;
20880;SDS011;10600;53.096;8.802;2023-07-31T05:15:00;10.60;;;5.65;;
20880;SDS011;10600;53.096;8.802;2023-07-31T05:16:02;9.52;;;6.03;;
20880;SDS011;10600;53.096;8.802;2023-07-31T05:17:03;8.48;;;5.68;;
20880;SDS011;10600;53.096;8.802;2023-07-31T05:18:04;12.65;;;6.90;;
20880;SDS011;10600;53.096;8.802;2023-07-31T05:19:05;8.90;;;5.82;;
20880;SDS011;10600;53.096;8.802;2023-07-31T05:20:06;9.02;;;5.97;;
20880;SDS011;10600;53.096;8.802;2023-07-31T05:21:07;7.93;;;5.60;;
20880;SDS011;10600;53.096;8.802;2023-07-31T05:22:08;7.28;;;5.78;;
20880;SDS011;10600;53.096;8.802;2023-07-31T05:23:10;7.30;;;5.25;;
20880;SDS011;10600;53.096;8.802;2023-07-31T05:24:14;7.38;;;4.90;;
20880;SDS011;10600;53.096;8.802;2023-07-31T05:25:15;9.68;;;5.63;;
20880;SDS011;10600;53.096;8.802;2023-07-31T05:26:16;8.27;;;5.28;;
20880;SDS011;10600;53.096;8.802;2023-07-31T05:27:18;6.05;;;5.07;;
20880;SDS011;10600;53.096;8.802;2023-07-31T05:28:21;9.15;;;5.78;;
20880;SDS011;10600;53.096;8.802;2023-07-31T05:29:22;6.22;;;4.85;;
20880;SDS011;10600;53.096;8.802;2023-07-31T05:30:23;8.57;;;5.70;;
20880;SDS011;10600;53.096;8.802;2023-07-31T05:31:24;7.22;;;5.03;;
20880;SDS011;10600;53.096;8.802;2023-07-31T05:32:25;9.07;;;5.22;;
20880;SDS011;10600;53.096;8.802;2023-07-31T05:33:27;7.43;;;4.85;;
20880;SDS011;10600;53.096;8.802;2023-07-31T05:34:28;7.05;;;4.55;;
20880;SDS011;10600;53.096;8.802;2023-07-31T05:35:29;5.90;;;4.40;;
20880;SDS011;10600;53.096;8.802;2023-07-31T05:36:30;6.07;;;4.43;;
20880;SDS011;10600;53.096;8.802;2023-07-31T05:37:31;6.55;;;4.70;;
20880;SDS011;10600;53.096;8.802;2023-07-31T05:38:32;6.28;;;4.22;;
20880;SDS011;10600;53.096;8.802;2023-07-31T05:39:33;8.52;;;4.90;;
20880;SDS011;10600;53.096;8.802;2023-07-31T05:40:34;5.68;;;4.32;;
20880;SDS011;10600;53.096;8.802;2023-07-31T05:41:35;5.93;;;3.97;;
20880;SDS011;10600;53.096;8.802;2023-07-31T05:42:36;5.60;;;3.75;;
20880;SDS011;10600;53.096;8.802;2023-07-31T05:43:38;5.72;;;4.30;;
20880;SDS011;10600;53.096;8.802;2023-07-31T05:44:40;5.70;;;3.90;;
20880;SDS011;10600;53.096;8.802;2023-07-31T05:45:43;9.32;;;3.70;;
20880;SDS011;10600;53.096;8.802;2023-07-31T05:46:45;5.95;;;3.53;;
20880;SDS011;10600;53.096;8.802;2023-07-31T05:47:46;4.93;;;3.75;;
20880;SDS011;10600;53.096;8.802;2023-07-31T05:48:47;6.85;;;4.00;;
20880;SDS011;10600;53.096;8.802;2023-07-31T05:49:48;6.28;;;3.97;;
20880;SDS011;10600;53.096;8.802;2023-07-31T05:50:49;4.03;;;3.33;;
20880;SDS011;10600;53.096;8.802;2023-07-31T05:51:50;4.80;;;3.80;;
20880;SDS011;10600;53.096;8.802;2023-07-31T05:52:51;6.75;;;3.58;;
20880;SDS011;10600;53.096;8.802;2023-07-31T05:53:52;4.72;;;3.33;;
20880;SDS011;10600;53.096;8.802;2023-07-31T05:54:53;6.10;;;3.50;;
20880;SDS011;10600;53.096;8.802;2023-07-31T05:55:54;4.28;;;3.72;;
20880;SDS011;10600;53.096;8.802;2023-07-31T05:56:55;4.50;;;3.42;;
20880;SDS011;10600;53.096;8.802;2023-07-31T05:57:56;4.32;;;3.33;;
20880;SDS011;10600;53.096;8.802;2023-07-31T05:58:57;5.93;;;3.55;;
20880;SDS011;10600;53.096;8.802;2023-07-31T05:59:58;3.90;;;3.38;;
20880;SDS011;10600;53.096;8.802;2023-07-31T06:00:59;5.18;;;3.45;;
20880;SDS011;10600;53.096;8.802;2023-07-31T06:02:00;4.03;;;3.15;;
20880;SDS011;10600;53.096;8.802;2023-07-31T06:03:02;4.68;;;2.95;;
20880;SDS011;10600;53.096;8.802;2023-07-31T06:04:03;3.65;;;3.00;;
20880;SDS011;10600;53.096;8.802;2023-07-31T06:05:04;4.10;;;3.38;;
20880;SDS011;10600;53.096;8.802;2023-07-31T06:06:05;5.03;;;3.45;;
20880;SDS011;10600;53.096;8.802;2023-07-31T06:07:06;3.88;;;3.05;;
20880;SDS011;10600;53.096;8.802;2023-07-31T06:08:08;4.72;;;3.35;;
20880;SDS011;10600;53.096;8.802;2023-07-31T06:09:09;6.57;;;3.35;;
20880;SDS011;10600;53.096;8.802;2023-07-31T06:10:10;4.07;;;2.90;;
20880;SDS011;10600;53.096;8.802;2023-07-31T06:11:11;4.32;;;2.90;;
20880;SDS011;10600;53.096;8.802;2023-07-31T06:12:12;3.60;;;3.00;;
20880;SDS011;10600;53.096;8.802;2023-07-31T06:13:13;3.55;;;3.00;;
20880;SDS011;10600;53.096;8.802;2023-07-31T06:14:14;3.25;;;2.85;;
20880;SDS011;10600;53.096;8.802;2023-07-31T06:15:15;6.88;;;3.30;;
20880;SDS011;10600;53.096;8.802;2023-07-31T06:16:16;4.75;;;3.22;;
20880;SDS011;10600;53.096;8.802;2023-07-31T06:17:17;4.68;;;3.22;;
20880;SDS011;10600;53.096;8.802;2023-07-31T06:18:18;6.38;;;3.17;;
20880;SDS011;10600;53.096;8.802;2023-07-31T06:19:19;4.68;;;3.67;;
20880;SDS011;10600;53.096;8.802;2023-07-31T06:20:20;4.82;;;3.70;;
20880;SDS011;10600;53.096;8.802;2023-07-31T06:21:21;3.53;;;3.22;;
20880;SDS011;10600;53.096;8.802;2023-07-31T06:22:22;4.22;;;3.40;;
20880;SDS011;10600;53.096;8.802;2023-07-31T06:23:23;5.18;;;3.90;;
20880;SDS011;10600;53.096;8.802;2023-07-31T06:24:24;5.55;;;3.50;;
20880;SDS011;10600;53.096;8.802;2023-07-31T06:25:26;6.10;;;3.83;;